sensor_id;sensor_type;location;lat;lon;timestamp;pressure;altitude;pressure_sealevel;temperature;humidity
51530;BME280;37613;51.788;21.582;2022-08-23T00:00:13;99850.42;;;20.45;83.82
51530;BME280;37613;51.788;21.582;2022-08-23T00:04:39;99881.80;;;20.47;83.89
51530;BME280;37613;51.788;21.582;2022-08-23T00:08:42;99908.05;;;20.45;84.10
51530;BME280;37613;51.788;21.582;2022-08-23T00:12:46;99896.52;;;20.39;84.42
51530;BME280;37613;51.788;21.582;2022-08-23T00:16:48;99923.32;;;20.31;84.36
51530;BME280;37613;51.788;21.582;2022-08-23T00:20:51;99928.11;;;20.21;84.48
51530;BME280;37613;51.788;21.582;2022-08-23T00:24:53;99913.31;;;20.09;84.67
51530;BME280;37613;51.788;21.582;2022-08-23T00:28:55;99910.54;;;19.97;84.87
51530;BME280;37613;51.788;21.582;2022-08-23T00:32:57;99901.55;;;19.87;85.04
51530;BME280;37613;51.788;21.582;2022-08-23T00:36:59;99881.21;;;19.76;85.05
51530;BME280;37613;51.788;21.582;2022-08-23T00:41:02;99878.21;;;19.68;85.24
51530;BME280;37613;51.788;21.582;2022-08-23T00:45:05;99910.38;;;19.57;87.37
51530;BME280;37613;51.788;21.582;2022-08-23T00:49:29;99898.12;;;19.44;88.41
51530;BME280;37613;51.788;21.582;2022-08-23T00:53:35;99859.88;;;19.27;87.42
51530;BME280;37613;51.788;21.582;2022-08-23T00:57:39;99850.44;;;19.16;87.07
51530;BME280;37613;51.788;21.582;2022-08-23T01:01:45;99842.35;;;19.09;86.99
51530;BME280;37613;51.788;21.582;2022-08-23T01:18:40;99859.33;;;18.79;89.03
51530;BME280;37613;51.788;21.582;2022-08-23T01:26:59;99864.95;;;18.62;89.48
51530;BME280;37613;51.788;21.582;2022-08-23T01:31:01;99864.56;;;18.60;90.85
51530;BME280;37613;51.788;21.582;2022-08-23T01:35:04;99867.16;;;18.57;91.09
51530;BME280;37613;51.788;21.582;2022-08-23T01:39:06;99866.16;;;18.56;91.18
51530;BME280;37613;51.788;21.582;2022-08-23T01:43:11;99866.22;;;18.56;91.43
51530;BME280;37613;51.788;21.582;2022-08-23T01:47:14;99866.52;;;18.57;93.57
51530;BME280;37613;51.788;21.582;2022-08-23T01:51:17;99863.55;;;18.59;94.97
51530;BME280;37613;51.788;21.582;2022-08-23T01:55:20;99864.75;;;18.60;93.27
51530;BME280;37613;51.788;21.582;2022-08-23T01:59:22;99864.34;;;18.60;93.83
51530;BME280;37613;51.788;21.582;2022-08-23T02:03:24;99857.42;;;18.61;94.54
51530;BME280;37613;51.788;21.582;2022-08-23T02:07:27;99856.77;;;18.61;93.44
51530;BME280;37613;51.788;21.582;2022-08-23T02:11:40;99857.23;;;18.62;92.39
51530;BME280;37613;51.788;21.582;2022-08-23T02:15:44;99857.89;;;18.61;92.41
51530;BME280;37613;51.788;21.582;2022-08-23T02:19:47;99861.30;;;18.60;91.81
51530;BME280;37613;51.788;21.582;2022-08-23T02:23:49;99858.30;;;18.59;92.08
51530;BME280;37613;51.788;21.582;2022-08-23T02:27:54;99862.95;;;18.56;91.65
51530;BME280;37613;51.788;21.582;2022-08-23T02:31:57;99870.27;;;18.54;91.23
51530;BME280;37613;51.788;21.582;2022-08-23T02:35:59;99868.89;;;18.54;91.30
51530;BME280;37613;51.788;21.582;2022-08-23T02:40:04;99859.73;;;18.53;91.44
51530;BME280;37613;51.788;21.582;2022-08-23T02:44:07;99858.54;;;18.51;91.47
51530;BME280;37613;51.788;21.582;2022-08-23T02:48:10;99855.38;;;18.47;91.31
51530;BME280;37613;51.788;21.582;2022-08-23T02:52:12;99852.89;;;18.43;91.43
51530;BME280;37613;51.788;21.582;2022-08-23T02:56:14;99851.61;;;18.37;91.35
51530;BME280;37613;51.788;21.582;2022-08-23T03:00:17;99850.65;;;18.32;91.35
51530;BME280;37613;51.788;21.582;2022-08-23T03:04:19;99850.80;;;18.28;91.42
51530;BME280;37613;51.788;21.582;2022-08-23T03:08:22;99853.02;;;18.25;91.39
51530;BME280;37613;51.788;21.582;2022-08-23T03:12:24;99854.39;;;18.20;91.52
51530;BME280;37613;51.788;21.582;2022-08-23T03:16:27;99852.85;;;18.14;91.51
51530;BME280;37613;51.788;21.582;2022-08-23T03:20:29;99856.68;;;18.08;91.54
51530;BME280;37613;51.788;21.582;2022-08-23T03:24:31;99862.60;;;18.06;91.59
51530;BME280;37613;51.788;21.582;2022-08-23T03:28:34;99863.45;;;18.06;91.65
51530;BME280;37613;51.788;21.582;2022-08-23T03:32:36;99868.55;;;18.09;91.64
51530;BME280;37613;51.788;21.582;2022-08-23T03:36:38;99867.27;;;18.13;91.70
51530;BME280;37613;51.788;21.582;2022-08-23T03:40:41;99864.70;;;18.16;91.69
51530;BME280;37613;51.788;21.582;2022-08-23T03:44:43;99864.77;;;18.20;91.63
51530;BME280;37613;51.788;21.582;2022-08-23T03:48:45;99863.36;;;18.26;91.73
51530;BME280;37613;51.788;21.582;2022-08-23T03:52:47;99868.75;;;18.34;91.84
51530;BME280;37613;51.788;21.582;2022-08-23T03:56:57;99868.92;;;18.46;92.02
51530;BME280;37613;51.788;21.582;2022-08-23T04:01:03;99867.67;;;18.59;91.79
51530;BME280;37613;51.788;21.582;2022-08-23T04:05:06;99871.70;;;18.75;92.06
51530;BME280;37613;51.788;21.582;2022-08-23T04:09:12;99877.50;;;18.97;92.17
51530;BME280;37613;51.788;21.582;2022-08-23T04:13:15;99875.36;;;19.26;92.50
51530;BME280;37613;51.788;21.582;2022-08-23T04:17:17;99876.44;;;19.85;93.12
51530;BME280;37613;51.788;21.582;2022-08-23T04:21:21;99889.85;;;20.53;93.08
51530;BME280;37613;51.788;21.582;2022-08-23T04:25:25;99889.86;;;21.26;92.94
51530;BME280;37613;51.788;21.582;2022-08-23T04:29:27;99884.77;;;21.99;92.63
51530;BME280;37613;51.788;21.582;2022-08-23T04:33:29;99879.73;;;22.78;92.58
51530;BME280;37613;51.788;21.582;2022-08-23T04:37:34;99883.07;;;23.59;90.93
51530;BME280;37613;51.788;21.582;2022-08-23T04:41:36;99881.44;;;24.33;90.79
51530;BME280;37613;51.788;21.582;2022-08-23T04:45:57;99886.92;;;25.19;90.01
51530;BME280;37613;51.788;21.582;2022-08-23T04:49:58;99885.01;;;25.89;88.94
51530;BME280;37613;51.788;21.582;2022-08-23T04:54:01;99877.16;;;26.67;88.07
51530;BME280;37613;51.788;21.582;2022-08-23T04:58:04;99878.81;;;27.46;86.59
51530;BME280;37613;51.788;21.582;2022-08-23T05:02:06;99883.36;;;28.15;85.63
51530;BME280;37613;51.788;21.582;2022-08-23T05:06:08;99883.45;;;28.81;84.27
51530;BME280;37613;51.788;21.582;2022-08-23T05:10:12;99885.66;;;29.52;82.44
51530;BME280;37613;51.788;21.582;2022-08-23T05:14:14;99889.03;;;30.12;80.74
51530;BME280;37613;51.788;21.582;2022-08-23T05:18:16;99893.12;;;30.67;78.58
51530;BME280;37613;51.788;21.582;2022-08-23T05:22:17;99899.72;;;31.20;77.12
51530;BME280;37613;51.788;21.582;2022-08-23T05:26:20;99908.54;;;31.17;71.51
51530;BME280;37613;51.788;21.582;2022-08-23T05:30:23;99912.62;;;31.21;70.19
51530;BME280;37613;51.788;21.582;2022-08-23T05:34:24;99913.41;;;31.21;67.66
51530;BME280;37613;51.788;21.582;2022-08-23T05:38:27;99912.34;;;31.07;68.10
51530;BME280;37613;51.788;21.582;2022-08-23T05:42:29;99916.80;;;30.86;65.98
51530;BME280;37613;51.788;21.582;2022-08-23T05:46:31;99920.67;;;30.56;64.55
51530;BME280;37613;51.788;21.582;2022-08-23T05:50:35;99923.36;;;29.98;61.48
51530;BME280;37613;51.788;21.582;2022-08-23T05:54:38;99926.91;;;29.44;60.87
51530;BME280;37613;51.788;21.582;2022-08-23T05:58:42;99925.55;;;28.62;62.22
51530;BME280;37613;51.788;21.582;2022-08-23T06:02:44;99930.46;;;28.11;62.56
51530;BME280;37613;51.788;21.582;2022-08-23T06:06:46;99926.85;;;27.40;63.22
51530;BME280;37613;51.788;21.582;2022-08-23T06:10:48;99930.89;;;26.92;64.24
51530;BME280;37613;51.788;21.582;2022-08-23T06:14:50;99935.63;;;26.52;64.98
51530;BME280;37613;51.788;21.582;2022-08-23T06:18:53;99934.66;;;26.10;65.74
51530;BME280;37613;51.788;21.582;2022-08-23T06:22:55;99943.05;;;25.74;66.21
51530;BME280;37613;51.788;21.582;2022-08-23T06:26:56;99944.98;;;25.61;67.16
51530;BME280;37613;51.788;21.582;2022-08-23T06:30:58;99942.86;;;25.78;68.21
51530;BME280;37613;51.788;21.582;2022-08-23T06:35:00;99944.53;;;26.03;68.26
51530;BME280;37613;51.788;21.582;2022-08-23T06:39:04;99950.69;;;26.23;68.48
51530;BME280;37613;51.788;21.582;2022-08-23T06:43:06;99953.34;;;26.31;68.64
51530;BME280;37613;51.788;21.582;2022-08-23T06:47:09;99957.81;;;26.13;68.51
51530;BME280;37613;51.788;21.582;2022-08-23T06:51:13;99958.60;;;25.92;68.85
51530;BME280;37613;51.788;21.582;2022-08-23T06:55:16;99962.84;;;25.69;68.94
51530;BME280;37613;51.788;21.582;2022-08-23T06:59:19;99960.38;;;25.40;69.54
51530;BME280;37613;51.788;21.582;2022-08-23T07:03:21;99959.38;;;25.16;69.82
51530;BME280;37613;51.788;21.582;2022-08-23T07:07:23;99955.78;;;24.95;70.68
51530;BME280;37613;51.788;21.582;2022-08-23T07:11:26;99955.98;;;24.74;71.17
51530;BME280;37613;51.788;21.582;2022-08-23T07:15:31;99955.23;;;24.64;71.14
51530;BME280;37613;51.788;21.582;2022-08-23T07:19:34;99960.59;;;24.50;71.84
51530;BME280;37613;51.788;21.582;2022-08-23T07:23:36;99960.92;;;24.38;71.98
51530;BME280;37613;51.788;21.582;2022-08-23T07:27:38;99959.11;;;24.35;72.97
51530;BME280;37613;51.788;21.582;2022-08-23T07:31:43;99960.66;;;24.32;72.97
51530;BME280;37613;51.788;21.582;2022-08-23T07:35:49;99961.30;;;24.29;73.19
51530;BME280;37613;51.788;21.582;2022-08-23T07:39:52;99959.91;;;24.32;73.50
51530;BME280;37613;51.788;21.582;2022-08-23T07:43:55;99961.48;;;24.43;73.89
51530;BME280;37613;51.788;21.582;2022-08-23T07:48:00;99957.14;;;24.60;74.41
51530;BME280;37613;51.788;21.582;2022-08-23T07:52:02;99955.86;;;24.76;75.35
51530;BME280;37613;51.788;21.582;2022-08-23T08:01:16;99953.48;;;24.99;74.99
51530;BME280;37613;51.788;21.582;2022-08-23T08:05:19;99957.14;;;25.12;75.50
51530;BME280;37613;51.788;21.582;2022-08-23T08:09:20;99959.55;;;25.32;75.63
51530;BME280;37613;51.788;21.582;2022-08-23T08:13:23;99964.80;;;25.63;75.41
51530;BME280;37613;51.788;21.582;2022-08-23T08:17:25;99963.62;;;25.96;74.44
51530;BME280;37613;51.788;21.582;2022-08-23T08:21:27;99963.50;;;26.17;74.13
51530;BME280;37613;51.788;21.582;2022-08-23T08:25:30;99967.00;;;26.55;73.71
51530;BME280;37613;51.788;21.582;2022-08-23T08:29:34;99965.13;;;26.82;72.60
51530;BME280;37613;51.788;21.582;2022-08-23T08:33:37;99968.84;;;27.04;72.73
51530;BME280;37613;51.788;21.582;2022-08-23T08:37:39;99968.82;;;27.42;72.02
51530;BME280;37613;51.788;21.582;2022-08-23T08:46:27;99965.82;;;27.84;69.55
51530;BME280;37613;51.788;21.582;2022-08-23T08:50:41;99966.64;;;28.02;68.43
51530;BME280;37613;51.788;21.582;2022-08-23T08:54:48;99960.26;;;28.20;67.07
51530;BME280;37613;51.788;21.582;2022-08-23T08:58:57;99962.67;;;28.23;64.66
51530;BME280;37613;51.788;21.582;2022-08-23T09:03:09;99964.75;;;28.36;64.61
51530;BME280;37613;51.788;21.582;2022-08-23T09:11:54;99961.95;;;28.57;63.55
51530;BME280;37613;51.788;21.582;2022-08-23T09:20:14;99965.01;;;28.96;62.20
51530;BME280;37613;51.788;21.582;2022-08-23T09:24:16;99968.48;;;29.10;60.95
51530;BME280;37613;51.788;21.582;2022-08-23T09:28:18;99971.05;;;29.12;60.04
51530;BME280;37613;51.788;21.582;2022-08-23T09:32:30;99971.60;;;29.01;58.44
51530;BME280;37613;51.788;21.582;2022-08-23T09:36:35;99965.69;;;29.03;58.68
51530;BME280;37613;51.788;21.582;2022-08-23T09:40:44;99970.89;;;29.13;57.97
51530;BME280;37613;51.788;21.582;2022-08-23T09:44:46;99965.55;;;29.07;57.14
51530;BME280;37613;51.788;21.582;2022-08-23T09:48:50;99966.35;;;29.09;57.00
51530;BME280;37613;51.788;21.582;2022-08-23T09:53:08;99962.10;;;29.06;57.49
51530;BME280;37613;51.788;21.582;2022-08-23T09:57:10;99960.27;;;29.20;57.39
51530;BME280;37613;51.788;21.582;2022-08-23T10:01:33;99961.70;;;29.15;56.66
51530;BME280;37613;51.788;21.582;2022-08-23T10:05:39;99959.71;;;29.12;56.98
51530;BME280;37613;51.788;21.582;2022-08-23T10:09:41;99957.30;;;29.09;56.71
51530;BME280;37613;51.788;21.582;2022-08-23T10:13:43;99956.77;;;28.92;56.83
51530;BME280;37613;51.788;21.582;2022-08-23T10:17:58;99955.95;;;28.87;57.18
51530;BME280;37613;51.788;21.582;2022-08-23T10:26:30;99956.83;;;29.11;55.26
51530;BME280;37613;51.788;21.582;2022-08-23T10:31:01;99956.97;;;29.18;54.22
51530;BME280;37613;51.788;21.582;2022-08-23T10:39:27;99950.70;;;29.69;52.96
51530;BME280;37613;51.788;21.582;2022-08-23T10:43:37;99951.69;;;29.91;52.31
51530;BME280;37613;51.788;21.582;2022-08-23T10:48:08;99955.39;;;30.07;50.68
51530;BME280;37613;51.788;21.582;2022-08-23T10:52:19;99948.66;;;30.15;50.39
51530;BME280;37613;51.788;21.582;2022-08-23T10:56:23;99957.44;;;30.15;49.74
51530;BME280;37613;51.788;21.582;2022-08-23T11:00:25;99953.16;;;30.21;49.06
51530;BME280;37613;51.788;21.582;2022-08-23T11:05:35;99954.95;;;30.26;48.66
51530;BME280;37613;51.788;21.582;2022-08-23T11:09:44;99954.52;;;30.47;49.89
51530;BME280;37613;51.788;21.582;2022-08-23T11:13:53;99957.21;;;30.54;49.30
51530;BME280;37613;51.788;21.582;2022-08-23T11:17:59;99957.81;;;30.64;48.27
51530;BME280;37613;51.788;21.582;2022-08-23T11:22:19;99953.52;;;30.71;47.54
51530;BME280;37613;51.788;21.582;2022-08-23T11:30:47;99955.71;;;30.80;46.45
51530;BME280;37613;51.788;21.582;2022-08-23T11:48:13;99958.90;;;30.68;46.46
51530;BME280;37613;51.788;21.582;2022-08-23T11:52:35;99957.10;;;30.81;46.31
51530;BME280;37613;51.788;21.582;2022-08-23T12:01:11;99954.92;;;30.98;45.60
51530;BME280;37613;51.788;21.582;2022-08-23T12:13:31;99954.92;;;30.73;43.65
51530;BME280;37613;51.788;21.582;2022-08-23T12:25:40;99951.22;;;30.99;44.54
51530;BME280;37613;51.788;21.582;2022-08-23T12:29:55;99951.00;;;30.99;44.61
51530;BME280;37613;51.788;21.582;2022-08-23T12:42:33;99939.73;;;31.15;44.32
51530;BME280;37613;51.788;21.582;2022-08-23T12:46:41;99939.98;;;31.12;42.63
51530;BME280;37613;51.788;21.582;2022-08-23T12:50:56;99939.02;;;31.02;42.53
51530;BME280;37613;51.788;21.582;2022-08-23T12:54:58;99937.13;;;30.91;42.28
51530;BME280;37613;51.788;21.582;2022-08-23T12:59:03;99939.27;;;30.96;42.55
51530;BME280;37613;51.788;21.582;2022-08-23T13:03:17;99930.68;;;30.97;42.92
51530;BME280;37613;51.788;21.582;2022-08-23T13:07:21;99924.84;;;31.02;43.06
51530;BME280;37613;51.788;21.582;2022-08-23T13:11:27;99925.48;;;31.08;43.67
51530;BME280;37613;51.788;21.582;2022-08-23T13:19:52;99914.61;;;31.09;43.01
51530;BME280;37613;51.788;21.582;2022-08-23T13:24:00;99913.83;;;31.03;42.22
51530;BME280;37613;51.788;21.582;2022-08-23T13:28:27;99908.05;;;30.94;42.75
51530;BME280;37613;51.788;21.582;2022-08-23T13:36:36;99902.95;;;30.82;43.35
51530;BME280;37613;51.788;21.582;2022-08-23T13:41:27;99899.33;;;30.83;43.69
51530;BME280;37613;51.788;21.582;2022-08-23T13:45:25;99898.09;;;30.78;43.14
51530;BME280;37613;51.788;21.582;2022-08-23T13:49:28;99896.98;;;30.76;42.89
51530;BME280;37613;51.788;21.582;2022-08-23T13:53:30;99891.12;;;30.72;42.75
51530;BME280;37613;51.788;21.582;2022-08-23T13:57:32;99883.84;;;30.70;43.42
51530;BME280;37613;51.788;21.582;2022-08-23T14:01:37;99884.17;;;30.69;43.10
51530;BME280;37613;51.788;21.582;2022-08-23T14:05:39;99881.07;;;30.60;42.81
51530;BME280;37613;51.788;21.582;2022-08-23T14:09:41;99885.01;;;30.61;43.47
51530;BME280;37613;51.788;21.582;2022-08-23T14:13:46;99894.78;;;30.67;43.64
51530;BME280;37613;51.788;21.582;2022-08-23T14:17:51;99898.52;;;30.65;43.35
51530;BME280;37613;51.788;21.582;2022-08-23T14:21:54;99897.83;;;30.63;43.28
51530;BME280;37613;51.788;21.582;2022-08-23T14:25:57;99893.25;;;30.61;43.17
51530;BME280;37613;51.788;21.582;2022-08-23T14:30:00;99900.11;;;30.61;43.51
51530;BME280;37613;51.788;21.582;2022-08-23T14:34:02;99900.05;;;30.61;43.54
51530;BME280;37613;51.788;21.582;2022-08-23T14:38:03;99902.47;;;30.55;43.52
51530;BME280;37613;51.788;21.582;2022-08-23T14:42:05;99906.48;;;30.47;43.32
51530;BME280;37613;51.788;21.582;2022-08-23T14:46:08;99913.44;;;30.40;43.27
51530;BME280;37613;51.788;21.582;2022-08-23T14:50:11;99919.20;;;30.36;43.16
51530;BME280;37613;51.788;21.582;2022-08-23T14:54:20;99919.52;;;30.28;42.75
51530;BME280;37613;51.788;21.582;2022-08-23T14:58:23;99923.35;;;30.28;43.17
51530;BME280;37613;51.788;21.582;2022-08-23T15:02:26;99930.60;;;30.32;42.96
51530;BME280;37613;51.788;21.582;2022-08-23T15:06:29;99936.90;;;30.31;43.07
51530;BME280;37613;51.788;21.582;2022-08-23T15:10:31;99935.85;;;30.24;43.22
51530;BME280;37613;51.788;21.582;2022-08-23T15:14:33;99934.81;;;30.12;43.39
51530;BME280;37613;51.788;21.582;2022-08-23T15:18:36;99938.23;;;29.97;43.51
51530;BME280;37613;51.788;21.582;2022-08-23T15:22:40;99940.92;;;29.82;43.46
51530;BME280;37613;51.788;21.582;2022-08-23T15:26:42;99942.98;;;29.68;43.85
51530;BME280;37613;51.788;21.582;2022-08-23T15:30:44;99946.52;;;29.52;43.75
51530;BME280;37613;51.788;21.582;2022-08-23T15:34:47;99951.67;;;29.36;44.37
51530;BME280;37613;51.788;21.582;2022-08-23T15:38:49;99957.44;;;29.24;44.62
51530;BME280;37613;51.788;21.582;2022-08-23T15:42:52;99960.96;;;29.10;45.05
51530;BME280;37613;51.788;21.582;2022-08-23T15:46:53;99961.30;;;28.94;45.06
51530;BME280;37613;51.788;21.582;2022-08-23T15:50:57;99960.37;;;28.78;45.29
51530;BME280;37613;51.788;21.582;2022-08-23T15:54:59;99963.90;;;28.59;45.75
51530;BME280;37613;51.788;21.582;2022-08-23T15:59:02;99969.39;;;28.40;46.53
51530;BME280;37613;51.788;21.582;2022-08-23T16:03:05;99975.95;;;28.27;47.33
51530;BME280;37613;51.788;21.582;2022-08-23T16:07:09;99980.23;;;28.14;48.00
51530;BME280;37613;51.788;21.582;2022-08-23T16:11:13;99979.26;;;28.00;48.91
51530;BME280;37613;51.788;21.582;2022-08-23T16:15:15;99976.56;;;27.86;49.28
51530;BME280;37613;51.788;21.582;2022-08-23T16:19:17;99980.98;;;27.70;50.33
51530;BME280;37613;51.788;21.582;2022-08-23T16:23:20;99987.13;;;27.54;51.14
51530;BME280;37613;51.788;21.582;2022-08-23T16:27:27;99995.94;;;27.33;51.67
51530;BME280;37613;51.788;21.582;2022-08-23T16:31:29;100000.27;;;27.14;52.38
51530;BME280;37613;51.788;21.582;2022-08-23T16:35:31;100003.73;;;26.92;52.58
51530;BME280;37613;51.788;21.582;2022-08-23T16:39:34;100000.34;;;26.70;52.91
51530;BME280;37613;51.788;21.582;2022-08-23T16:43:37;99998.37;;;26.50;53.29
51530;BME280;37613;51.788;21.582;2022-08-23T16:47:40;100003.71;;;26.34;53.75
51530;BME280;37613;51.788;21.582;2022-08-23T16:51:44;100008.35;;;26.22;54.45
51530;BME280;37613;51.788;21.582;2022-08-23T16:55:46;100018.89;;;26.18;55.07
51530;BME280;37613;51.788;21.582;2022-08-23T16:59:48;100028.23;;;26.10;55.84
51530;BME280;37613;51.788;21.582;2022-08-23T17:03:51;100034.36;;;26.01;56.12
51530;BME280;37613;51.788;21.582;2022-08-23T17:07:52;100042.30;;;25.90;56.93
51530;BME280;37613;51.788;21.582;2022-08-23T17:11:55;100047.73;;;25.79;57.48
51530;BME280;37613;51.788;21.582;2022-08-23T17:15:59;100055.85;;;25.66;57.60
51530;BME280;37613;51.788;21.582;2022-08-23T17:20:00;100060.72;;;25.50;57.99
51530;BME280;37613;51.788;21.582;2022-08-23T17:24:04;100064.60;;;25.40;58.55
51530;BME280;37613;51.788;21.582;2022-08-23T17:28:06;100067.73;;;25.33;58.84
51530;BME280;37613;51.788;21.582;2022-08-23T17:32:08;100072.69;;;25.23;59.23
51530;BME280;37613;51.788;21.582;2022-08-23T17:36:32;100075.42;;;25.14;59.78
51530;BME280;37613;51.788;21.582;2022-08-23T17:40:38;100079.13;;;25.05;60.06
51530;BME280;37613;51.788;21.582;2022-08-23T17:44:40;100084.66;;;24.96;60.40
51530;BME280;37613;51.788;21.582;2022-08-23T17:48:42;100089.09;;;24.86;60.96
51530;BME280;37613;51.788;21.582;2022-08-23T17:52:44;100091.13;;;24.70;61.69
51530;BME280;37613;51.788;21.582;2022-08-23T17:56:46;100093.50;;;24.47;63.84
51530;BME280;37613;51.788;21.582;2022-08-23T18:00:48;100103.23;;;24.30;63.76
51530;BME280;37613;51.788;21.582;2022-08-23T18:04:50;100106.75;;;24.21;63.14
51530;BME280;37613;51.788;21.582;2022-08-23T18:08:52;100118.40;;;24.17;63.84
51530;BME280;37613;51.788;21.582;2022-08-23T18:12:56;100119.83;;;24.13;65.88
51530;BME280;37613;51.788;21.582;2022-08-23T18:16:58;100126.57;;;24.04;66.98
51530;BME280;37613;51.788;21.582;2022-08-23T18:21:05;100127.06;;;23.89;69.24
51530;BME280;37613;51.788;21.582;2022-08-23T18:25:09;100126.40;;;23.73;69.52
51530;BME280;37613;51.788;21.582;2022-08-23T18:29:13;100131.55;;;23.57;68.67
51530;BME280;37613;51.788;21.582;2022-08-23T18:33:17;100135.01;;;23.44;69.61
51530;BME280;37613;51.788;21.582;2022-08-23T18:37:19;100142.79;;;23.32;69.93
51530;BME280;37613;51.788;21.582;2022-08-23T18:41:22;100148.92;;;23.19;70.12
51530;BME280;37613;51.788;21.582;2022-08-23T18:45:24;100157.14;;;23.09;69.75
51530;BME280;37613;51.788;21.582;2022-08-23T18:49:26;100160.36;;;22.98;69.72
51530;BME280;37613;51.788;21.582;2022-08-23T18:53:28;100160.90;;;22.89;69.55
51530;BME280;37613;51.788;21.582;2022-08-23T18:57:30;100162.46;;;22.82;70.02
51530;BME280;37613;51.788;21.582;2022-08-23T19:01:34;100158.56;;;22.74;70.00
51530;BME280;37613;51.788;21.582;2022-08-23T19:05:38;100152.40;;;22.67;70.33
51530;BME280;37613;51.788;21.582;2022-08-23T19:09:40;100145.15;;;22.58;71.06
51530;BME280;37613;51.788;21.582;2022-08-23T19:13:42;100141.73;;;22.49;70.87
51530;BME280;37613;51.788;21.582;2022-08-23T19:17:44;100136.58;;;22.41;70.94
51530;BME280;37613;51.788;21.582;2022-08-23T19:21:48;100136.48;;;22.34;71.18
51530;BME280;37613;51.788;21.582;2022-08-23T19:25:50;100137.27;;;22.27;71.30
51530;BME280;37613;51.788;21.582;2022-08-23T19:29:52;100135.77;;;22.23;71.46
51530;BME280;37613;51.788;21.582;2022-08-23T19:33:55;100144.79;;;22.16;71.84
51530;BME280;37613;51.788;21.582;2022-08-23T19:37:58;100149.29;;;22.08;72.24
51530;BME280;37613;51.788;21.582;2022-08-23T19:42:01;100159.90;;;22.01;72.26
51530;BME280;37613;51.788;21.582;2022-08-23T19:46:05;100163.91;;;21.95;72.27
51530;BME280;37613;51.788;21.582;2022-08-23T19:50:09;100165.89;;;21.92;72.64
51530;BME280;37613;51.788;21.582;2022-08-23T19:54:11;100173.10;;;21.89;72.47
51530;BME280;37613;51.788;21.582;2022-08-23T19:58:14;100176.77;;;21.85;72.26
51530;BME280;37613;51.788;21.582;2022-08-23T20:02:15;100180.54;;;21.78;72.72
51530;BME280;37613;51.788;21.582;2022-08-23T20:06:17;100180.93;;;21.71;73.07
51530;BME280;37613;51.788;21.582;2022-08-23T20:10:20;100180.95;;;21.66;73.10
51530;BME280;37613;51.788;21.582;2022-08-23T20:14:23;100182.02;;;21.62;73.36
51530;BME280;37613;51.788;21.582;2022-08-23T20:18:25;100186.06;;;21.58;73.71
51530;BME280;37613;51.788;21.582;2022-08-23T20:22:27;100179.15;;;21.54;73.66
51530;BME280;37613;51.788;21.582;2022-08-23T20:26:48;100177.85;;;21.51;74.40
51530;BME280;37613;51.788;21.582;2022-08-23T20:30:51;100174.89;;;21.49;74.12
51530;BME280;37613;51.788;21.582;2022-08-23T20:34:53;100175.04;;;21.49;74.45
51530;BME280;37613;51.788;21.582;2022-08-23T20:38:56;100172.47;;;21.47;74.59
51530;BME280;37613;51.788;21.582;2022-08-23T20:43:00;100169.55;;;21.48;74.83
51530;BME280;37613;51.788;21.582;2022-08-23T20:47:02;100169.10;;;21.46;74.89
51530;BME280;37613;51.788;21.582;2022-08-23T20:51:05;100163.98;;;21.43;75.04
51530;BME280;37613;51.788;21.582;2022-08-23T20:55:08;100164.83;;;21.42;75.53
51530;BME280;37613;51.788;21.582;2022-08-23T20:59:10;100164.64;;;21.37;75.61
51530;BME280;37613;51.788;21.582;2022-08-23T21:03:15;100163.09;;;21.32;75.84
51530;BME280;37613;51.788;21.582;2022-08-23T21:07:17;100161.96;;;21.27;75.90
51530;BME280;37613;51.788;21.582;2022-08-23T21:11:19;100161.19;;;21.22;75.90
51530;BME280;37613;51.788;21.582;2022-08-23T21:15:22;100162.17;;;21.19;76.16
51530;BME280;37613;51.788;21.582;2022-08-23T21:19:24;100165.58;;;21.14;76.50
51530;BME280;37613;51.788;21.582;2022-08-23T21:23:26;100178.15;;;21.10;76.49
51530;BME280;37613;51.788;21.582;2022-08-23T21:27:28;100175.75;;;21.07;76.75
51530;BME280;37613;51.788;21.582;2022-08-23T21:31:29;100180.26;;;21.02;76.92
51530;BME280;37613;51.788;21.582;2022-08-23T21:35:32;100182.16;;;20.99;76.82
51530;BME280;37613;51.788;21.582;2022-08-23T21:39:34;100181.75;;;20.95;77.29
51530;BME280;37613;51.788;21.582;2022-08-23T21:43:37;100178.16;;;20.89;77.23
51530;BME280;37613;51.788;21.582;2022-08-23T21:47:38;100175.59;;;20.85;77.44
51530;BME280;37613;51.788;21.582;2022-08-23T21:51:41;100180.71;;;20.81;77.41
51530;BME280;37613;51.788;21.582;2022-08-23T21:55:44;100179.17;;;20.78;77.51
51530;BME280;37613;51.788;21.582;2022-08-23T21:59:46;100175.20;;;20.74;77.56
51530;BME280;37613;51.788;21.582;2022-08-23T22:03:48;100169.89;;;20.66;77.59
51530;BME280;37613;51.788;21.582;2022-08-23T22:07:50;100168.84;;;20.59;77.81
51530;BME280;37613;51.788;21.582;2022-08-23T22:11:52;100161.70;;;20.52;77.88
51530;BME280;37613;51.788;21.582;2022-08-23T22:15:55;100157.45;;;20.47;77.99
51530;BME280;37613;51.788;21.582;2022-08-23T22:19:57;100150.98;;;20.42;78.17
51530;BME280;37613;51.788;21.582;2022-08-23T22:23:59;100149.92;;;20.36;78.32
51530;BME280;37613;51.788;21.582;2022-08-23T22:28:01;100139.36;;;20.31;78.30
51530;BME280;37613;51.788;21.582;2022-08-23T22:32:03;100138.11;;;20.26;78.48
51530;BME280;37613;51.788;21.582;2022-08-23T22:36:09;100138.09;;;20.21;78.63
51530;BME280;37613;51.788;21.582;2022-08-23T22:40:11;100136.86;;;20.16;78.82
51530;BME280;37613;51.788;21.582;2022-08-23T22:44:14;100131.33;;;20.12;78.89
51530;BME280;37613;51.788;21.582;2022-08-23T22:48:16;100134.84;;;20.09;79.08
51530;BME280;37613;51.788;21.582;2022-08-23T22:52:18;100131.58;;;20.06;79.18